Flight Track Log - Related Links

Times and Time Zones

All times are in EDT time to prevent confusion due to time zone crossing. See the UPS1125 flight status page for this flight to view local times or setup timezone preferences in your user account.

Time Position Orientation Groundspeed Altitude Reporting Facility
EDT Latitude Longitude Course Direction KTS MPH feet Rate Location/Type
10:26PM 40.6520 -73.7970 151° Southeast 31 36  Level FlightAware
10:26PM 40.6510 -73.7970 180° South 23 26 31 Level FlightAware
10:26PM 40.6500 -73.7980 217° Southwest 33 38 31 Level FlightAware
10:27PM 40.6460 -73.7980 180° South 34 39 32 Level FlightAware
10:27PM 40.6470 -73.7970 37° Northeast 18 21 34 Level FlightAware
10:27PM 40.6440 -73.7960 166° South 15 17 34 Level FlightAware
10:28PM 40.6420 -73.7960 180° South 19 22 35 Level FlightAware
10:28PM 40.6390 -73.7940 153° Southeast 19 22 36 Level FlightAware
10:29PM 40.6380 -73.7910 114° Southeast 20 23 38 Level FlightAware
10:29PM 40.6370 -73.7880 114° Southeast 21 24 39 Level FlightAware
10:30PM 40.6350 -73.7850 131° Southeast 16 18 41 Level FlightAware
10:30PM 40.6340 -73.7830 123° Southeast 27 31 43 Level FlightAware
10:32PM 40.6340 -73.7810 90° East 9 10 45 Level FlightAware
10:34PM 40.7575 -73.9983 303° West  Level FlightAware Approximate
10:34PM 40.6330 -73.7810 303° West 19 22  Level FlightAware
10:34PM 40.6330 -73.7800 90° East 30 35 63 Level FlightAware
10:34PM 40.6330 -73.7780 90° East 29 33 65 Level FlightAware
10:35PM 40.6320 -73.7760 123° Southeast 18 21 68 Level FlightAware
10:35PM 40.6310 -73.7730 114° Southeast 28 32 73 Level FlightAware
10:36PM 40.6300 -73.7720 143° Southeast 2 2 79 Level FlightAware
10:38PM 40.7531 -73.9896 303° West  Level FlightAware Approximate
10:38PM 40.6300 -73.7710 303° West 2 2  Level FlightAware
10:39PM 40.6290 -73.7710 180° South 2 2 126 Level FlightAware
10:40PM 40.6280 -73.7720 217° Southwest 19 22 172 Level FlightAware
10:41PM 40.6290 -73.7740 303° West 53 61 268 Level FlightAware
10:42PM 40.6380 -73.7930 302° West 156 180 500 1,571 Climbing FlightAware
10:42PM 40.6410 -73.8040 290° West 155 178 1,100 2,276 Climbing FlightAware
10:42PM 40.6390 -73.8210 261° West 170 196 1,600 1,286 Climbing FlightAware
10:42PM 40.6340 -73.8310 237° Southwest 183 211 1,700 973 Climbing FlightAware
10:43PM 40.6210 -73.8570 237° Southwest 219 252 2,200 1,610 Climbing FlightAware
10:43PM 40.6070 -73.8630 198° South 230 265 2,800 2,276 Climbing FlightAware
10:43PM 40.5910 -73.8570 164° South 246 283 3,300 2,625 Climbing FlightAware
10:44PM 40.5770 -73.8370 133° Southeast 255 293 4,200 2,933 Climbing FlightAware
10:44PM 40.5620 -73.7990 117° Southeast 267 307 5,500 2,923 Climbing FlightAware
10:44PM 40.5570 -73.7820 111° Southeast 265 305 6,100 3,273 Climbing FlightAware
10:44PM 40.5550 -73.7660 99° East 258 297 6,700 3,400 Climbing FlightAware
10:45PM 40.5630 -73.7370 70° East 249 287 7,800 2,400 Climbing FlightAware
10:46PM 40.5850 -73.6830 62° Northeast 264 304 9,700 2,745 Climbing FlightAware
10:46PM 40.6190 -73.5960 63° Northeast 310 357 12,100 3,429 Climbing FlightAware
10:47PM 40.6330 -73.5710 54° Northeast 304 350 12,900 2,909 Climbing FlightAware
10:47PM 40.6530 -73.5560 30° Northeast 294 338 13,700 2,308 Climbing FlightAware
10:47PM 40.6660 -73.5530 10° North 297 342 13,900 1,920 Climbing FlightAware
10:47PM 40.6860 -73.5540 358° North 302 348 14,500 2,746 Climbing FlightAware
10:48PM 40.7490 -73.5650 352° North 321 369 16,600 1,814 Climbing FlightAware
10:49PM 40.8170 -73.5770 352° North 356 410 17,100 361 Climbing FlightAware
10:49PM 40.8780 -73.6100 338° Northwest 351 404 17,100  Level FlightAware
10:50PM 40.9330 -73.6750 318° Northwest 385 443 17,100  Level FlightAware
10:51PM 40.9890 -73.7420 318° Northwest 383 441 17,100  Level FlightAware
10:51PM 41.0350 -73.8110 311° West 382 440 17,100  Level FlightAware
10:52PM 41.0559 -73.8918 289° West 384 442 17,100  Level FlightAware ADS-B
10:52PM 41.0634 -73.9623 278° West 385 443 17,100  Level FlightAware ADS-B
10:53PM 41.0666 -73.9937 278° West 387 445 17,100  Level FlightAware ADS-B
10:53PM 41.0745 -74.0466 281° West 391 450 17,100  Level FlightAware ADS-B
10:53PM 41.0860 -74.0974 287° West 395 455 17,100  Level FlightAware ADS-B
10:54PM 41.1094 -74.1802 291° West 391 450 17,100 710 Level FlightAware ADS-B
10:55PM 41.1452 -74.3057 291° West 390 449 18,200 1,613 Climbing FlightAware ADS-B
10:56PM 41.1690 -74.3880 291° West 400 460 19,600 2,278 Climbing FlightAware
10:56PM 41.1970 -74.4850 291° West 410 472 21,200 2,512 Climbing FlightAware
10:57PM 41.2270 -74.5910 291° West 411 473 23,200 2,593 Climbing FlightAware
10:58PM 41.2520 -74.6790 291° West 413 475 24,700 2,143 Climbing FlightAware
10:58PM 41.2830 -74.7910 290° West 418 481 26,200 1,835 Climbing FlightAware
10:59PM 41.3090 -74.8820 291° West 423 487 27,300 1,958 Climbing FlightAware
11:00PM 41.3480 -75.0220 290° West 419 482 29,300 2,520 Climbing FlightAware
11:01PM 41.3750 -75.1200 290° West 393 452 31,500 1,952 Climbing FlightAware
11:01PM 41.4000 -75.2110 290° West 387 445 32,000 375 Climbing FlightAware
11:02PM 41.4260 -75.3040 290° West 385 443 32,000  Level FlightAware
11:03PM 41.4530 -75.4030 290° West 389 448 32,000  Level FlightAware
11:04PM 41.4820 -75.5090 290° West 396 456 32,000  Level FlightAware
11:04PM 41.5080 -75.5960 292° West 398 458 32,000  Level FlightAware
11:05PM 41.5480 -75.7340 291° West 396 456 32,000  Level FlightAware
11:06PM 41.5640 -75.7930 290° West 395 455 32,000  Level FlightAware
11:07PM 41.6000 -75.9200 291° West 402 463 32,000 571 Level FlightAware
11:07PM 41.6280 -76.0180 291° West 401 461 32,800 1,286 Climbing FlightAware
11:08PM 41.6560 -76.1160 291° West 405 466 33,800 1,389 Climbing FlightAware
11:09PM 41.6950 -76.2560 290° West 402 463 35,300 1,048 Climbing FlightAware
11:10PM 41.7370 -76.4060 291° West 407 468 36,000 372 Climbing FlightAware
11:11PM 41.7730 -76.5340 291° West 404 465 36,000  Level FlightAware
11:12PM 41.8040 -76.6480 290° West 409 471 36,000  Level FlightAware
11:12PM 41.8310 -76.7440 291° West 411 473 36,000  Level FlightAware
11:13PM 41.8570 -76.8390 290° West 412 474 36,000  Level FlightAware
11:14PM 41.8870 -76.9460 291° West 413 475 36,000  Level FlightAware
11:15PM 41.9160 -77.0510 290° West 413 475 36,000  Level FlightAware
11:15PM 41.9530 -77.1860 290° West 413 475 36,000  Level FlightAware
11:16PM 41.9790 -77.2840 290° West 414 476 36,000  Level FlightAware
11:17PM 42.0070 -77.3880 290° West 412 474 36,000  Level FlightAware
11:17PM 42.0270 -77.4660 289° West 411 473 36,000  Level FlightAware
11:18PM 42.0480 -77.5450 290° West 410 472 36,000  Level FlightAware
11:19PM 42.0730 -77.6410 289° West 410 472 36,000  Level FlightAware
11:19PM 42.1010 -77.7450 290° West 412 474 36,000  Level FlightAware
11:20PM 42.1280 -77.8500 289° West 414 476 36,000  Level FlightAware
11:21PM 42.1530 -77.9460 289° West 417 480 36,000  Level FlightAware
11:21PM 42.1790 -78.0440 290° West 418 481 36,000  Level FlightAware
11:22PM 42.2060 -78.1500 289° West 418 481 36,000  Level FlightAware
11:23PM 42.2320 -78.2500 289° West 417 480 36,000  Level FlightAware
11:24PM 42.2620 -78.3650 289° West 415 478 36,000  Level FlightAware
11:24PM 42.2830 -78.4470 289° West 415 478 36,000  Level FlightAware
11:25PM 42.3160 -78.5790 289° West 414 476 36,000  Level FlightAware
11:26PM 42.3450 -78.6920 289° West 414 476 36,000  Level FlightAware
11:27PM 42.3700 -78.7910 289° West 414 476 36,000  Level FlightAware
11:27PM 42.3980 -78.9030 289° West 415 478 36,000  Level FlightAware
11:28PM 42.4190 -78.9880 289° West 414 476 36,000  Level FlightAware
11:29PM 42.4470 -79.0980 289° West 414 476 36,000  Level FlightAware
11:29PM 42.4740 -79.2090 288° West 413 475 36,000  Level FlightAware
11:30PM 42.4930 -79.2930 287° West 414 476 36,000  Level FlightAware
11:31PM 42.5270 -79.4260 289° West 415 478 36,000  Level FlightAware
11:31PM 42.5420 -79.4800 291° West 415 478 36,000  Level FlightAware
11:32PM 42.5710 -79.5880 290° West 412 474 36,000  Level FlightAware
11:33PM 42.6020 -79.6990 291° West 412 474 36,000  Level FlightAware
11:33PM 42.6320 -79.8070 291° West 412 474 36,000  Level FlightAware
11:34PM 42.6550 -79.8930 290° West 413 475 36,000  Level FlightAware
11:35PM 42.6850 -80.0020 291° West 410 472 36,000  Level FlightAware
11:36PM 42.7140 -80.1110 290° West 405 466 36,000  Level FlightAware
11:36PM 42.7430 -80.2170 290° West 402 463 36,000  Level FlightAware
11:37PM 42.7680 -80.3110 290° West 401 461 36,000  Level FlightAware
11:38PM 42.7940 -80.4070 290° West 401 461 36,000  Level FlightAware
11:38PM 42.8230 -80.5130 290° West 398 458 36,000  Level FlightAware
11:39PM 42.8480 -80.6070 290° West 397 457 36,000  Level FlightAware
11:40PM 42.8760 -80.7130 290° West 398 458 36,000  Level FlightAware
11:40PM 42.9010 -80.8080 290° West 400 460 36,000  Level FlightAware
11:41PM 42.9260 -80.9030 290° West 399 459 36,000  Level FlightAware
11:42PM 42.9540 -81.0090 290° West 396 456 36,000  Level FlightAware
11:43PM 42.9780 -81.1020 289° West 397 457 36,000  Level FlightAware
11:43PM 43.0030 -81.1980 290° West 401 461 36,000  Level FlightAware
11:44PM 43.0280 -81.2930 290° West 402 463 36,000  Level FlightAware
11:45PM 43.0520 -81.3870 289° West 403 464 36,000  Level FlightAware
11:45PM 43.0790 -81.4960 289° West 405 466 36,000  Level FlightAware
11:46PM 43.1100 -81.6190 289° West 405 466 36,000  Level FlightAware
11:47PM 43.1310 -81.7000 290° West 406 467 36,000  Level FlightAware
11:47PM 43.1610 -81.8190 289° West 406 467 36,000  Level FlightAware
11:48PM 43.1840 -81.9090 289° West 405 466 36,000  Level FlightAware
11:49PM 43.2090 -82.0090 289° West 400 460 36,000  Level FlightAware
11:50PM 43.2370 -82.1230 289° West 397 457 36,000  Level FlightAware
11:50PM 43.2630 -82.2290 289° West 389 448 36,000  Level FlightAware
11:51PM 43.2830 -82.3080 289° West 382 440 36,000  Level FlightAware
11:52PM 43.3070 -82.4090 288° West 376 433 36,000  Level FlightAware
11:52PM 43.3320 -82.5120 288° West 377 434 36,000  Level FlightAware
11:53PM 43.3540 -82.6000 289° West 376 433 36,000  Level FlightAware
11:54PM 43.3800 -82.7070 289° West 375 432 36,000  Level FlightAware
11:54PM 43.4010 -82.7940 288° West 374 430 36,000  Level FlightAware
11:55PM 43.4270 -82.8990 289° West 373 429 36,000  Level FlightAware
11:56PM 43.4500 -82.9980 288° West 372 428 36,000  Level FlightAware
11:56PM 43.4700 -83.0820 288° West 370 426 36,000  Level FlightAware
11:57PM 43.4930 -83.1790 288° West 369 425 36,000  Level FlightAware
11:58PM 43.5150 -83.2730 288° West 369 425 36,000  Level FlightAware
11:59PM 43.5390 -83.3710 289° West 375 432 36,000  Level FlightAware
11:59PM 43.5610 -83.4670 288° West 374 430 36,000  Level FlightAware
12:00AM 43.5830 -83.5590 288° West 385 443 36,000  Level FlightAware
12:01AM 43.6080 -83.6660 288° West 395 455 36,000  Level FlightAware
12:01AM 43.6310 -83.7680 287° West 393 452 36,000  Level FlightAware
12:02AM 43.6500 -83.8490 288° West 393 452 36,000  Level FlightAware
12:03AM 43.6790 -83.9740 288° West 395 455 36,000  Level FlightAware
12:04AM 43.6990 -84.0630 287° West 397 457 36,000  Level FlightAware
12:04AM 43.7230 -84.1710 287° West 401 461 36,000  Level FlightAware
12:05AM 43.7480 -84.2790 288° West 404 465 36,000  Level FlightAware
12:06AM 43.7710 -84.3820 287° West 407 468 36,000  Level FlightAware
12:06AM 43.7930 -84.4800 287° West 411 473 36,000  Level FlightAware
12:07AM 43.8190 -84.5970 287° West 417 480 36,000  Level FlightAware
12:08AM 43.8420 -84.7010 287° West 429 494 36,000  Level FlightAware
12:08AM 43.8680 -84.8230 287° West 429 494 36,000  Level FlightAware
12:09AM 43.8910 -84.9230 288° West 433 498 36,000  Level FlightAware
12:10AM 43.9160 -85.0370 287° West 431 496 36,000  Level FlightAware
12:11AM 43.9410 -85.1530 287° West 430 495 36,000  Level FlightAware
12:11AM 43.9640 -85.2600 287° West 432 497 36,000  Level FlightAware
12:12AM 43.9910 -85.3840 287° West 436 502 36,000  Level FlightAware
12:13AM 44.0110 -85.4750 287° West 440 506 36,000  Level FlightAware
12:13AM 44.0400 -85.6120 286° West 443 510 36,000  Level FlightAware
12:14AM 44.0590 -85.7130 285° West 441 507 36,000  Level FlightAware
12:14AM 44.0530 -85.7660 261° West 423 487 36,000  Level FlightAware
12:15AM 44.0140 -85.8970 248° West 418 481 36,000  Level FlightAware
12:16AM 43.9710 -85.9970 239° Southwest 421 484 36,000  Level FlightAware
12:17AM 43.9290 -86.0940 239° Southwest 424 488 36,000  Level FlightAware
12:17AM 43.8850 -86.1970 239° Southwest 427 491 36,000  Level FlightAware
12:18AM 43.8460 -86.2860 239° Southwest 431 496 36,000  Level FlightAware
12:19AM 43.7970 -86.3980 239° Southwest 436 502 36,000  Level FlightAware
12:19AM 43.7570 -86.4900 239° Southwest 437 503 36,000  Level FlightAware
12:20AM 43.7290 -86.5530 238° Southwest 438 504 36,000  Level FlightAware
12:20AM 43.6910 -86.6390 239° Southwest 440 506 36,000  Level FlightAware
12:21AM 43.6440 -86.7460 239° Southwest 444 511 36,000  Level FlightAware
12:22AM 43.6010 -86.8440 239° Southwest 445 512 36,000  Level FlightAware
12:22AM 43.5590 -86.9380 238° Southwest 446 513 36,000  Level FlightAware
12:23AM 43.5070 -87.0530 238° Southwest 446 513 36,000  Level FlightAware
12:24AM 43.4650 -87.1470 238° Southwest 445 512 36,000 -237 Level FlightAware
12:25AM 43.4240 -87.2390 238° Southwest 445 512 35,700 -955 Descending FlightAware
12:25AM 43.3690 -87.3600 238° Southwest 451 519 34,600 -1,253 Descending FlightAware
12:26AM 43.3250 -87.4590 239° Southwest 457 526 33,800 -1,244 Descending FlightAware
12:27AM 43.2770 -87.5650 238° Southwest 463 533 32,900 -1,326 Descending FlightAware
12:27AM 43.2270 -87.6750 238° Southwest 470 541 31,900 -1,429 Descending FlightAware
12:28AM 43.1800 -87.7770 238° Southwest 471 542 30,900 -1,412 Descending FlightAware
12:29AM 43.1280 -87.8920 238° Southwest 471 542 29,900 -1,271 Descending FlightAware
12:30AM 43.0810 -87.9930 238° Southwest 471 542 29,100 -1,463 Descending FlightAware
12:30AM 43.0340 -88.0940 238° Southwest 469 540 27,900 -2,634 Descending FlightAware
12:31AM 42.9850 -88.2000 238° Southwest 466 536 25,500 -3,214 Descending FlightAware
12:32AM 42.9340 -88.3090 237° Southwest 453 521 23,400 -3,106 Descending FlightAware
12:32AM 42.8890 -88.4030 237° Southwest 436 502 21,100 -3,671 Descending FlightAware
12:33AM 42.8400 -88.5040 237° Southwest 426 490 18,200 -3,600 Descending FlightAware
12:34AM 42.7960 -88.5960 237° Southwest 401 461 16,000 -2,195 Descending FlightAware
12:34AM 42.7570 -88.6750 236° Southwest 352 405 15,200 -1,326 Descending FlightAware
12:35AM 42.7190 -88.7520 236° Southwest 336 387 13,900 -2,198 Descending FlightAware
12:36AM 42.6560 -88.8440 227° Southwest 354 407 11,500 -2,276 Descending FlightAware
12:37AM 42.5980 -88.8780 203° Southwest 314 361 10,600 -1,412 Descending FlightAware
12:37AM 42.5630 -88.8980 203° Southwest 289 333 9,900 -2,036 Descending FlightAware
12:38AM 42.5290 -88.9180 203° Southwest 286 329 8,700 -2,591 Descending FlightAware
12:38AM 42.5090 -88.9290 202° Southwest 286 329 8,000 -1,773 Descending FlightAware
12:38AM 42.4750 -88.9490 203° Southwest 281 323 7,400 -1,412 Descending FlightAware
12:39AM 42.4480 -88.9640 202° Southwest 281 323 6,800 -1,579 Descending FlightAware
12:39AM 42.4290 -88.9750 203° Southwest 281 323 6,400 -1,636 Descending FlightAware
12:40AM 42.3930 -88.9960 203° Southwest 283 326 5,600 -1,017 Descending FlightAware
12:40AM 42.3810 -89.0030 203° Southwest 282 325 5,400 -1,017 Descending FlightAware
12:41AM 42.3250 -89.0340 202° Southwest 254 292 4,600 -1,317 Descending FlightAware
12:41AM 42.3110 -89.0410 200° South 245 282 4,500 -429 Descending FlightAware
12:41AM 42.2990 -89.0550 221° Southwest 230 265 4,400 -429 Descending FlightAware
12:41AM 42.2920 -89.0710 239° Southwest 217 250 4,300 -300 Descending FlightAware
12:42AM 42.2800 -89.1060 245° Southwest 204 235 4,200 -109 Descending FlightAware
12:42AM 42.2690 -89.1370 244° Southwest 204 235 4,200 -214 Level FlightAware
12:43AM 42.2580 -89.1700 246° West 195 224 4,000 -764 Descending FlightAware
12:43AM 42.2490 -89.1990 247° West 193 222 3,500 -1,034 Descending FlightAware
12:44AM 42.2330 -89.2330 238° Southwest 192 221 3,000 -955 Descending FlightAware
12:44AM 42.2240 -89.2400 210° Southwest 189 217 2,800 -462 Descending FlightAware
12:44AM 42.2020 -89.2460 191° South 174 200 2,700 -111 Descending FlightAware
12:45AM 42.1820 -89.2450 178° South 151 174 2,700  Level FlightAware
12:45AM 42.1670 -89.2380 161° South 149 171 2,700 -136 Level FlightAware
12:45AM 42.1620 -89.2220 113° Southeast 137 158 2,600 -500 Descending FlightAware
12:46AM 42.1640 -89.1990 83° East 132 152 2,300 -577 Descending FlightAware
12:46AM 42.1690 -89.1820 68° East 117 135 2,100 -667 Descending FlightAware
12:47AM 42.1760 -89.1620 65° Northeast 115 132 1,700 -689 Descending FlightAware
12:47AM 42.1830 -89.1420 65° Northeast 120 138 1,400 -682 Descending FlightAware
12:48AM 42.1860 -89.1330 66° East 123 142 1,200 -327 Descending FlightAware
12:48AM 42.1950 -89.1060 66° East 124 143 1,100 -143 Descending FlightAware

Login

Don't have an account? Register now (free) for customized features, flight alerts, and more!